»·PEaware :: AAL1494 KSAN-KPHX

AAL1494 :: KSAN-KPHX

FLIGHT INFORMATION

Flight Status: Arrived
Operator:
American Airlines
More flights by this operator :: More flights under this callsign
Pilot: Alfredo R. (12181)
Aircraft: BOEING 737-800
(B738)
More flights by this aircraft type
Origin: KSAN San Diego Intl-Lindbergh
United States
Destination: KPHX Phoenix Sky Harbor Intl
United States
More flights between these airports :: More routes between these airports
Route: ZZOOO1 IPL J18 BZA HOGGZ HYDRR1
File this flight plan on PilotEdge
Remarks:
Altitude:
(Current/Filed)
31,000ft
Speed:
(Current/Filed)
430kts
Departed: 11-Jun-17 03:11 PM
Arrived: 11-Jun-17 04:06 PM
Distance/Time
Traveled:
264nm/0:55
Distance/Time
To Go:
Arrived

Flight Plot

Page will automatically refresh every two minutes.


Map Options




Map Legend


Flown Route
Filed Route
Departure Airport
Arrival Airport
Navaid (VOR, NDB)
Fix

Horizontal Profiles

Position Reports

Time Latitude Longitude Heading Altitude Ground
Speed
11-Jun-17 14:22 32.734105 -117.201793 178 25ft 0kts
11-Jun-17 14:23 32.734105 -117.201793 178 25ft 0kts
11-Jun-17 14:24 32.734105 -117.201793 178 25ft 0kts
11-Jun-17 14:25 32.734105 -117.201793 178 25ft 0kts
11-Jun-17 14:26 32.734105 -117.201793 178 25ft 0kts
11-Jun-17 14:27 32.734105 -117.201793 178 25ft 0kts
11-Jun-17 14:28 32.734105 -117.201793 178 25ft 0kts
11-Jun-17 14:29 32.734105 -117.201793 178 25ft 0kts
11-Jun-17 14:30 32.734105 -117.201793 178 25ft 0kts
11-Jun-17 14:31 32.734105 -117.201793 178 25ft 0kts
11-Jun-17 14:32 32.734105 -117.201793 178 25ft 0kts
11-Jun-17 14:33 32.734105 -117.201793 178 25ft 0kts
11-Jun-17 14:34 32.734105 -117.201793 178 25ft 0kts
11-Jun-17 14:35 32.734105 -117.201793 178 25ft 0kts
11-Jun-17 14:36 32.734105 -117.201793 178 25ft 0kts
11-Jun-17 14:37 32.734105 -117.201793 178 25ft 0kts
11-Jun-17 14:38 32.734105 -117.201793 178 25ft 0kts
11-Jun-17 14:39 32.734105 -117.201793 178 25ft 0kts
11-Jun-17 14:40 32.734105 -117.201793 178 25ft 0kts
11-Jun-17 14:41 32.734105 -117.201793 178 25ft 0kts
11-Jun-17 14:42 32.734105 -117.201793 178 25ft 0kts
11-Jun-17 14:43 32.734105 -117.201793 178 25ft 0kts
11-Jun-17 14:44 32.734105 -117.201793 178 25ft 0kts
11-Jun-17 14:45 32.734105 -117.201793 178 25ft 0kts
11-Jun-17 14:46 32.734105 -117.201793 178 25ft 0kts
11-Jun-17 14:47 32.734105 -117.201793 178 25ft 0kts
11-Jun-17 14:48 32.734105 -117.201793 178 25ft 0kts
11-Jun-17 14:49 32.734147 -117.201794 178 25ft 0kts
11-Jun-17 14:50 32.734480 -117.201938 123 24ft 1kts
11-Jun-17 14:51 32.734554 -117.202518 34 25ft 0kts
11-Jun-17 14:52 32.734533 -117.202534 19 25ft 0kts
11-Jun-17 14:53 32.734533 -117.202534 19 25ft 0kts
11-Jun-17 14:54 32.734533 -117.202534 19 25ft 0kts
11-Jun-17 14:55 32.734533 -117.202534 19 25ft 0kts
11-Jun-17 14:56 32.734533 -117.202534 19 25ft 0kts
11-Jun-17 14:57 32.734533 -117.202534 19 25ft 0kts
11-Jun-17 14:58 32.734533 -117.202534 19 25ft 0kts
11-Jun-17 14:59 32.734569 -117.202520 17 25ft 0kts
11-Jun-17 15:00 32.734883 -117.202418 15 24ft 0kts
11-Jun-17 15:01 32.734996 -117.202381 17 24ft 0kts
11-Jun-17 15:02 32.734998 -117.202380 17 24ft 0kts
11-Jun-17 15:03 32.735455 -117.202094 66 24ft 3kts
11-Jun-17 15:04 32.735131 -117.200429 107 25ft 8kts
11-Jun-17 15:05 32.734261 -117.196866 105 24ft 15kts
11-Jun-17 15:06 32.733030 -117.191786 105 25ft 16kts
11-Jun-17 15:07 32.731828 -117.186795 105 25ft 15kts
11-Jun-17 15:08 32.730468 -117.181177 106 24ft 20kts
11-Jun-17 15:09 32.729478 -117.176907 81 25ft 3kts
11-Jun-17 15:10 32.729514 -117.176730 74 24ft 0kts
11-Jun-17 15:11 32.729773 -117.175927 47 24ft 6kts
11-Jun-17 15:12 32.730598 -117.177511 285 25ft 11kts
11-Jun-17 15:13 32.734641 -117.194287 285 25ft 147kts
11-Jun-17 15:14 32.747418 -117.245757 283 2025ft 188kts
11-Jun-17 15:15 32.748782 -117.307514 233 3551ft 235kts
11-Jun-17 15:16 32.688721 -117.318943 152 6171ft 277kts
11-Jun-17 15:17 32.640372 -117.258493 127 8460ft 302kts
11-Jun-17 15:18 32.616153 -117.168078 93 10536ft 333kts
11-Jun-17 15:19 32.613805 -117.064336 96 12500ft 352kts
11-Jun-17 15:20 32.605256 -116.954967 97 14491ft 366kts
11-Jun-17 15:21 32.617878 -116.839031 79 16763ft 382kts
11-Jun-17 15:22 32.635309 -116.719898 85 18989ft 392kts
11-Jun-17 15:23 32.647981 -116.591853 85 21096ft 404kts
11-Jun-17 15:24 32.660394 -116.463985 86 23410ft 392kts
11-Jun-17 15:25 32.672071 -116.341793 86 25191ft 393kts
11-Jun-17 15:26 32.683123 -116.225158 86 26496ft 400kts
11-Jun-17 15:27 32.694741 -116.101006 86 27331ft 419kts
11-Jun-17 15:28 32.707006 -115.969162 86 28240ft 434kts
11-Jun-17 15:29 32.719402 -115.834844 86 29625ft 432kts
11-Jun-17 15:30 32.731926 -115.697226 86 30830ft 431kts
11-Jun-17 15:31 32.745003 -115.551569 86 30863ft 469kts
11-Jun-17 15:32 32.751867 -115.390871 91 30815ft 507kts
11-Jun-17 15:33 32.755575 -115.224322 91 30824ft 505kts
11-Jun-17 15:34 32.759278 -115.058911 91 30808ft 505kts
11-Jun-17 15:35 32.762714 -114.892317 91 30806ft 505kts
11-Jun-17 15:36 32.765877 -114.726399 91 30816ft 504kts
11-Jun-17 15:37 32.768671 -114.561294 91 30802ft 501kts
11-Jun-17 15:38 32.770979 -114.396654 92 30811ft 500kts
11-Jun-17 15:39 32.772776 -114.254892 92 30798ft 500kts
11-Jun-17 15:40 32.774774 -114.090418 90 30794ft 498kts
11-Jun-17 15:41 32.790571 -113.927341 84 30801ft 500kts
11-Jun-17 15:42 32.810494 -113.766710 80 30558ft 504kts
11-Jun-17 15:43 32.855219 -113.615868 58 29041ft 476kts
11-Jun-17 15:44 32.941767 -113.504313 36 27268ft 458kts
11-Jun-17 15:45 33.030678 -113.398818 46 25475ft 453kts
11-Jun-17 15:46 33.107762 -113.295558 47 23554ft 435kts
11-Jun-17 15:47 33.185119 -113.190857 48 21263ft 393kts
11-Jun-17 15:48 33.250370 -113.091867 61 19177ft 374kts
11-Jun-17 15:49 33.277678 -112.977534 84 17218ft 372kts
11-Jun-17 15:50 33.292296 -112.860776 84 15231ft 371kts
11-Jun-17 15:51 33.299505 -112.740795 100 13177ft 360kts
11-Jun-17 15:52 33.306575 -112.628075 83 11216ft 360kts
11-Jun-17 15:53 33.311862 -112.513256 89 9163ft 348kts
11-Jun-17 15:54 33.319344 -112.409898 88 8987ft 289kts
11-Jun-17 15:55 33.327105 -112.320829 88 9010ft 278kts
11-Jun-17 15:56 33.335352 -112.229283 88 9007ft 276kts
11-Jun-17 15:57 33.343035 -112.144495 88 9014ft 251kts
11-Jun-17 15:58 33.347400 -112.061772 95 8732ft 252kts
11-Jun-17 15:59 33.348523 -111.980570 89 7844ft 250kts
11-Jun-17 16:00 33.354139 -111.898966 89 6733ft 249kts
11-Jun-17 16:01 33.357795 -111.819764 91 5507ft 236kts
11-Jun-17 16:02 33.393628 -111.760465 7 4416ft 251kts
11-Jun-17 16:03 33.438540 -111.798132 269 4039ft 196kts
11-Jun-17 16:04 33.432855 -111.862812 256 3413ft 189kts
11-Jun-17 16:05 33.431802 -111.921477 261 2561ft 165kts
11-Jun-17 16:06 33.430970 -111.974259 266 1581ft 150kts
11-Jun-17 16:07 33.431033 -112.012927 270 1142ft 50kts
11-Jun-17 16:08 33.432094 -112.019650 66 1141ft 5kts
11-Jun-17 16:09 33.432146 -112.017404 90 1142ft 12kts
11-Jun-17 16:10 33.432144 -112.012805 89 1142ft 16kts
11-Jun-17 16:11 33.432687 -112.010017 357 1142ft 7kts
11-Jun-17 16:12 33.433503 -112.009457 108 1142ft 0kts
11-Jun-17 16:13 33.433473 -112.009359 110 1142ft 0kts

Navigation Log

Ident Type
1. KSAN Airport
2. JETTI Fix
3. ZZOOO Fix
4. JORRJ Fix
5. GRIDR Fix
6. BLUZE Fix
7. IPL Navaid
8. IPL Navaid
9. HEEDS Fix
10. BZA Navaid
11. HOGGZ Fix
12. JUDTH Fix
13. RKDAM Fix
14. HYDRR Fix
15. GEELA Fix
16. PUNNT Fix
17. TEICH Fix
18. TESLE Fix
19. FALGO Fix
20. CAGOR Fix
21. FOWLE Fix
22. KPHX Airport